createdAt,value
2023-01-09T00:02:07.193Z,12.50
2023-01-09T00:05:10.484Z,17.10
2023-01-09T00:08:12.487Z,16.48
2023-01-09T00:11:14.513Z,11.27
2023-01-09T00:14:17.168Z,14.93
2023-01-09T00:17:19.176Z,12.20
2023-01-09T00:20:21.249Z,12.70
2023-01-09T00:23:23.289Z,15.07
2023-01-09T00:26:25.297Z,15.77
2023-01-09T00:29:27.321Z,15.32
2023-01-09T00:32:29.408Z,16.17
2023-01-09T00:35:31.471Z,12.93
2023-01-09T00:38:33.537Z,16.85
2023-01-09T00:41:46.512Z,15.32
2023-01-09T00:44:53.992Z,14.13
2023-01-09T00:47:59.289Z,14.53
2023-01-09T00:51:01.466Z,16.98
2023-01-09T00:54:04.082Z,13.30
2023-01-09T00:57:06.388Z,16.67
2023-01-09T01:00:08.870Z,15.60
2023-01-09T01:03:10.906Z,12.45
2023-01-09T01:06:31.350Z,14.65
2023-01-09T01:09:33.367Z,10.60
2023-01-09T01:12:35.512Z,15.65
2023-01-09T01:15:41.388Z,12.77
2023-01-09T01:18:43.395Z,14.53
2023-01-09T01:21:45.585Z,16.70
2023-01-09T01:24:47.667Z,13.73
2023-01-09T01:27:49.775Z,13.80
2023-01-09T01:30:51.820Z,12.00
2023-01-09T01:33:53.782Z,17.15
2023-01-09T01:36:55.827Z,15.32
2023-01-09T01:39:57.838Z,9.98
2023-01-09T01:42:59.911Z,13.93
2023-01-09T01:46:02.011Z,13.40
2023-01-09T01:49:07.724Z,9.70
2023-01-09T01:52:09.727Z,14.73
2023-01-09T01:55:11.901Z,14.05
2023-01-09T01:58:14.900Z,12.37
2023-01-09T02:01:17.293Z,13.85
2023-01-09T02:04:19.682Z,10.00
2023-01-09T02:07:21.665Z,10.43
2023-01-09T02:10:23.829Z,9.32
2023-01-09T02:13:27.135Z,14.32
2023-01-09T02:16:33.122Z,16.23
2023-01-09T02:19:37.882Z,14.63
2023-01-09T02:22:58.289Z,15.60
2023-01-09T02:26:00.216Z,13.23
2023-01-09T02:29:20.941Z,13.63
2023-01-09T02:32:28.701Z,11.43
2023-01-09T02:35:39.588Z,14.95
2023-01-09T02:38:48.094Z,13.73
2023-01-09T02:42:16.457Z,15.98
2023-01-09T02:45:18.519Z,16.70
2023-01-09T02:48:20.587Z,15.80
2023-01-09T02:51:25.339Z,15.57
2023-01-09T02:54:27.326Z,14.68
2023-01-09T02:57:38.289Z,12.45
2023-01-09T03:00:57.984Z,11.93
2023-01-09T03:04:00.025Z,14.82
2023-01-09T03:07:17.010Z,11.75
2023-01-09T03:10:21.333Z,11.95
2023-01-09T03:13:24.587Z,14.60
2023-01-09T03:16:32.670Z,14.27
2023-01-09T03:19:35.289Z,10.18
2023-01-09T03:22:39.348Z,12.63
2023-01-09T03:25:41.431Z,13.43
2023-01-09T03:28:44.061Z,11.95
2023-01-09T03:31:46.135Z,12.00
2023-01-09T03:34:48.164Z,12.68
2023-01-09T03:37:51.781Z,11.77
2023-01-09T03:40:53.775Z,12.23
2023-01-09T03:43:55.711Z,13.40
2023-01-09T03:46:57.736Z,11.50
2023-01-09T03:49:59.750Z,11.82
2023-01-09T03:53:01.791Z,13.73
2023-01-09T03:56:03.828Z,14.00
2023-01-09T03:59:05.835Z,9.52
2023-01-09T04:02:08.000Z,9.40
2023-01-09T04:05:10.328Z,12.80
2023-01-09T04:08:12.360Z,12.55
2023-01-09T04:11:14.376Z,10.38
2023-01-09T04:14:16.795Z,8.95
2023-01-09T04:17:18.786Z,10.70
2023-01-09T04:20:20.761Z,10.60
2023-01-09T04:23:22.812Z,11.50
2023-01-09T04:26:24.950Z,11.18
2023-01-09T04:29:27.029Z,9.05
2023-01-09T04:32:29.098Z,10.23
2023-01-09T04:35:31.159Z,11.63
2023-01-09T04:38:33.154Z,11.45
2023-01-09T04:41:50.395Z,12.18
2023-01-09T04:44:55.133Z,8.85
2023-01-09T04:47:57.150Z,11.98
2023-01-09T04:50:59.157Z,10.15
2023-01-09T04:54:01.530Z,10.37
2023-01-09T04:57:03.535Z,11.75
2023-01-09T05:00:09.818Z,10.00
2023-01-09T05:03:11.910Z,10.97
2023-01-09T05:06:13.951Z,10.65
2023-01-09T05:09:15.999Z,9.70
2023-01-09T05:12:17.991Z,9.57
2023-01-09T05:15:20.111Z,9.75
2023-01-09T05:18:22.082Z,11.63
2023-01-09T05:21:24.411Z,10.65
2023-01-09T05:24:26.379Z,11.37
2023-01-09T05:27:28.442Z,10.23
2023-01-09T05:30:30.423Z,12.35
2023-01-09T05:33:32.485Z,10.87
2023-01-09T05:36:34.510Z,9.30
2023-01-09T05:39:36.493Z,12.23
2023-01-09T05:42:38.567Z,10.32
2023-01-09T05:45:40.695Z,11.90
2023-01-09T05:48:42.714Z,10.30
2023-01-09T05:51:44.775Z,10.65
2023-01-09T05:54:46.807Z,11.17
2023-01-09T05:57:48.818Z,9.30
2023-01-09T06:00:52.296Z,8.20
2023-01-09T06:03:54.391Z,11.23
2023-01-09T06:06:56.687Z,13.90
2023-01-09T06:09:58.707Z,10.20
2023-01-09T06:13:00.701Z,10.48
2023-01-09T06:16:02.902Z,11.05
2023-01-09T06:19:06.029Z,10.60
2023-01-09T06:22:08.054Z,9.50
2023-01-09T06:25:10.142Z,9.87
2023-01-09T06:28:12.225Z,10.25
2023-01-09T06:31:14.394Z,8.88
2023-01-09T06:34:16.383Z,11.77
2023-01-09T06:37:18.545Z,9.55
2023-01-09T06:40:21.418Z,8.02
2023-01-09T06:43:23.509Z,7.38
2023-01-09T06:46:25.804Z,8.82
2023-01-09T06:49:28.050Z,10.25
2023-01-09T06:52:30.467Z,8.15
2023-01-09T06:55:33.083Z,8.30
2023-01-09T06:58:35.351Z,9.10
2023-01-09T07:01:39.849Z,7.22
2023-01-09T07:04:42.417Z,10.80
2023-01-09T07:07:44.890Z,6.97
2023-01-09T07:10:47.971Z,10.90
2023-01-09T07:13:50.815Z,9.73
2023-01-09T07:16:53.463Z,10.80
2023-01-09T07:19:55.901Z,7.32
2023-01-09T07:22:58.121Z,10.35
2023-01-09T07:26:01.056Z,12.60
2023-01-09T07:29:03.812Z,11.88
2023-01-09T07:32:05.966Z,10.52
2023-01-09T07:35:09.139Z,12.30
2023-01-09T07:38:11.283Z,12.00
2023-01-09T07:41:13.379Z,12.13
2023-01-09T07:44:16.057Z,11.02
2023-01-09T07:47:19.084Z,12.73
2023-01-09T07:50:21.564Z,11.57
2023-01-09T07:53:23.615Z,14.07
2023-01-09T07:56:25.816Z,10.33
2023-01-09T07:59:30.171Z,9.57
2023-01-09T08:02:33.121Z,11.82
2023-01-09T08:05:35.255Z,12.67
2023-01-09T08:08:37.407Z,11.43
2023-01-09T08:11:39.793Z,10.15
2023-01-09T08:14:42.434Z,12.50
2023-01-09T08:17:45.464Z,10.52
2023-01-09T08:20:50.864Z,9.90
2023-01-09T08:23:52.900Z,14.65
2023-01-09T08:26:55.278Z,8.13
2023-01-09T08:29:57.407Z,11.25
2023-01-09T08:32:59.383Z,11.63
2023-01-09T08:36:01.510Z,11.83
2023-01-09T08:39:03.722Z,14.02
2023-01-09T08:42:24.626Z,11.80
2023-01-09T08:45:46.033Z,13.75
2023-01-09T08:48:48.658Z,14.32
2023-01-09T08:51:51.307Z,9.65
2023-01-09T08:54:53.559Z,13.20
2023-01-09T08:57:55.976Z,13.40
2023-01-09T09:00:59.189Z,10.27
2023-01-09T09:04:01.329Z,9.77
2023-01-09T09:07:03.544Z,10.60
2023-01-09T09:10:05.818Z,10.18
2023-01-09T09:13:08.102Z,13.70
2023-01-09T09:16:10.454Z,11.15
2023-01-09T09:19:13.463Z,11.00
2023-01-09T09:22:16.069Z,7.68
2023-01-09T09:25:18.909Z,11.68
2023-01-09T09:28:20.965Z,13.33
2023-01-09T09:31:24.265Z,11.13
2023-01-09T09:34:26.400Z,11.38
2023-01-09T09:37:28.547Z,11.67
2023-01-09T09:40:48.915Z,12.80
2023-01-09T09:44:24.025Z,13.75
2023-01-09T09:47:34.273Z,10.02
2023-01-09T09:50:36.437Z,15.18
2023-01-09T09:53:42.001Z,16.20
2023-01-09T09:56:51.598Z,14.82
2023-01-09T09:59:54.083Z,10.40
2023-01-09T10:03:00.967Z,18.23
2023-01-09T10:06:05.488Z,13.73
2023-01-09T10:09:16.255Z,18.70
2023-01-09T10:12:18.272Z,18.40
2023-01-09T10:15:32.038Z,14.98
2023-01-09T10:18:54.339Z,19.63
2023-01-09T10:22:08.903Z,17.63
2023-01-09T10:25:17.168Z,21.30
2023-01-09T10:28:37.880Z,13.15
2023-01-09T10:31:49.309Z,18.53
2023-01-09T10:35:10.160Z,18.02
2023-01-09T10:38:13.308Z,17.92
2023-01-09T10:41:18.209Z,19.20
2023-01-09T10:44:26.000Z,13.25
2023-01-09T10:47:30.771Z,19.98
2023-01-09T10:50:37.691Z,14.65
2023-01-09T10:53:42.265Z,16.02
2023-01-09T10:56:58.266Z,17.27
2023-01-09T11:00:00.360Z,18.77
2023-01-09T11:03:02.624Z,15.23
2023-01-09T11:06:12.839Z,14.30
2023-01-09T11:09:16.633Z,16.92
2023-01-09T11:12:26.371Z,14.63
2023-01-09T11:15:31.606Z,16.67
2023-01-09T11:18:34.571Z,14.52
2023-01-09T11:21:41.977Z,18.58
2023-01-09T11:24:44.460Z,15.40
2023-01-09T11:28:02.454Z,14.13
2023-01-09T11:31:04.938Z,15.82
2023-01-09T11:34:15.629Z,20.97
2023-01-09T11:37:30.507Z,16.20
2023-01-09T11:40:37.785Z,13.13
2023-01-09T11:43:40.145Z,16.93
2023-01-09T11:46:44.066Z,21.08
2023-01-09T11:49:51.278Z,41.92
2023-01-09T11:53:13.800Z,30.27
2023-01-09T11:56:17.612Z,24.38
2023-01-09T11:59:21.261Z,25.27
2023-01-09T12:02:29.961Z,19.70
2023-01-09T12:05:32.133Z,25.33
2023-01-09T12:08:52.586Z,18.70
2023-01-09T12:11:55.067Z,18.05
2023-01-09T12:14:57.510Z,16.40
2023-01-09T12:18:08.525Z,16.63
2023-01-09T12:21:11.053Z,21.42
2023-01-09T12:24:14.249Z,17.92
2023-01-09T12:27:51.669Z,19.27
2023-01-09T12:30:58.907Z,19.55
2023-01-09T12:34:00.865Z,17.58
2023-01-09T12:37:13.521Z,22.87
2023-01-09T12:40:15.693Z,21.85
2023-01-09T12:43:20.156Z,17.20
2023-01-09T12:46:23.958Z,14.77
2023-01-09T12:49:39.549Z,21.90
2023-01-09T12:52:48.899Z,23.05
2023-01-09T12:55:53.112Z,24.42
2023-01-09T12:59:00.496Z,23.48
2023-01-09T13:02:17.340Z,26.55
2023-01-09T13:05:25.616Z,24.42
2023-01-09T13:08:32.663Z,16.00
2023-01-09T13:11:38.262Z,23.67
2023-01-09T13:14:56.431Z,20.70
2023-01-09T13:18:18.750Z,20.97
2023-01-09T13:21:21.150Z,20.92
2023-01-09T13:24:27.788Z,21.85
2023-01-09T13:27:32.842Z,22.42
2023-01-09T13:30:50.282Z,25.20
2023-01-09T13:33:57.299Z,23.35
2023-01-09T13:37:00.069Z,21.58
2023-01-09T13:40:04.050Z,22.40
2023-01-09T13:43:10.004Z,26.83
2023-01-09T13:46:12.253Z,22.13
2023-01-09T13:49:32.828Z,24.30
2023-01-09T13:52:39.089Z,21.95
2023-01-09T13:56:02.406Z,27.90
2023-01-09T13:59:24.431Z,47.17
2023-01-09T14:02:35.355Z,32.97
2023-01-09T14:05:37.485Z,28.77
2023-01-09T14:08:42.204Z,22.10
2023-01-09T14:11:44.388Z,20.47
2023-01-09T14:14:48.728Z,23.80
2023-01-09T14:17:58.698Z,22.17
2023-01-09T14:21:01.911Z,26.93
2023-01-09T14:24:06.876Z,33.65
2023-01-09T14:27:29.380Z,22.95
2023-01-09T14:30:49.989Z,21.92
2023-01-09T14:34:23.183Z,18.40
2023-01-09T14:37:33.993Z,19.17
2023-01-09T14:40:37.332Z,22.80
2023-01-09T14:43:59.372Z,20.27
2023-01-09T14:47:21.015Z,23.20
2023-01-09T14:50:28.819Z,19.45
2023-01-09T14:53:33.467Z,18.97
2023-01-09T14:56:45.467Z,22.33
2023-01-09T15:00:17.038Z,22.17
2023-01-09T15:03:20.186Z,22.95
2023-01-09T15:06:23.514Z,18.67
2023-01-09T15:09:36.106Z,27.70
2023-01-09T15:12:38.861Z,22.35
2023-01-09T15:15:44.887Z,17.83
2023-01-09T15:18:48.585Z,21.63
2023-01-09T15:22:01.706Z,24.17
2023-01-09T15:25:27.351Z,23.83
2023-01-09T15:28:32.288Z,24.25
2023-01-09T15:31:34.568Z,22.40
2023-01-09T15:34:37.091Z,24.48
2023-01-09T15:37:39.578Z,25.88
2023-01-09T15:40:41.695Z,26.15
2023-01-09T15:43:44.311Z,24.83
2023-01-09T15:46:46.881Z,24.47
2023-01-09T15:49:49.121Z,25.33
2023-01-09T15:52:51.711Z,22.60
2023-01-09T15:56:30.439Z,20.67
2023-01-09T15:59:32.556Z,20.83
2023-01-09T16:02:53.052Z,20.08
2023-01-09T16:06:06.425Z,20.67
2023-01-09T16:09:15.388Z,23.30
2023-01-09T16:12:18.699Z,22.27
2023-01-09T16:15:20.830Z,21.70
2023-01-09T16:18:33.163Z,21.60
2023-01-09T16:21:36.564Z,22.67
2023-01-09T16:24:41.847Z,20.88
2023-01-09T16:27:43.839Z,20.50
2023-01-09T16:31:15.062Z,23.80
2023-01-09T16:34:17.734Z,21.95
2023-01-09T16:37:20.265Z,23.17
2023-01-09T16:40:24.276Z,23.92
2023-01-09T16:43:26.365Z,23.98
2023-01-09T16:46:28.756Z,24.83
2023-01-09T16:49:30.949Z,23.77
2023-01-09T16:52:32.929Z,31.08
2023-01-09T16:55:34.981Z,28.58
2023-01-09T16:58:37.034Z,28.40
2023-01-09T17:01:39.125Z,30.65
2023-01-09T17:04:41.213Z,30.00
2023-01-09T17:07:43.260Z,28.60
2023-01-09T17:10:45.321Z,30.20
2023-01-09T17:13:48.237Z,26.63
2023-01-09T17:16:50.313Z,22.30
2023-01-09T17:19:52.349Z,24.83
2023-01-09T17:22:54.367Z,24.25
2023-01-09T17:26:18.253Z,24.15
2023-01-09T17:29:20.340Z,24.17
2023-01-09T17:32:22.380Z,24.20
2023-01-09T17:35:24.416Z,23.70
2023-01-09T17:38:26.472Z,21.80
2023-01-09T17:41:29.559Z,22.00
2023-01-09T17:44:31.570Z,23.25
2023-01-09T17:47:33.974Z,21.23
2023-01-09T17:50:36.559Z,21.00
2023-01-09T17:53:38.595Z,20.02
2023-01-09T17:56:43.232Z,21.20
2023-01-09T17:59:45.234Z,19.90
2023-01-09T18:02:47.987Z,22.25
2023-01-09T18:05:50.182Z,26.85
2023-01-09T18:08:52.274Z,26.45
2023-01-09T18:11:54.319Z,23.27
2023-01-09T18:14:56.345Z,23.30
2023-01-09T18:17:58.371Z,22.75
2023-01-09T18:21:03.737Z,23.40
2023-01-09T18:24:05.943Z,23.88
2023-01-09T18:27:08.046Z,22.38
2023-01-09T18:30:10.590Z,24.93
2023-01-09T18:33:15.049Z,23.98
2023-01-09T18:36:17.230Z,28.42
2023-01-09T18:39:19.303Z,26.35
2023-01-09T18:42:21.361Z,24.42
2023-01-09T18:45:23.379Z,25.77
2023-01-09T18:48:25.423Z,24.08
2023-01-09T18:51:27.935Z,24.60
2023-01-09T18:54:29.985Z,25.08
2023-01-09T18:57:31.986Z,26.70
2023-01-09T19:00:34.059Z,25.83
2023-01-09T19:03:36.118Z,28.95
2023-01-09T19:06:38.317Z,30.42
2023-01-09T19:09:40.326Z,26.65
2023-01-09T19:12:42.295Z,26.63
2023-01-09T19:15:44.309Z,22.35
2023-01-09T19:18:46.352Z,26.13
2023-01-09T19:21:48.452Z,22.13
2023-01-09T19:24:50.627Z,23.30
2023-01-09T19:27:54.992Z,23.23
2023-01-09T19:30:57.094Z,25.20
2023-01-09T19:33:59.162Z,23.38
2023-01-09T19:37:01.266Z,24.85
2023-01-09T19:40:03.389Z,25.65
2023-01-09T19:43:05.444Z,24.45
2023-01-09T19:46:11.561Z,21.08
2023-01-09T19:49:13.668Z,24.73
2023-01-09T19:52:15.646Z,23.53
2023-01-09T19:55:17.620Z,23.27
2023-01-09T19:58:19.644Z,23.13
2023-01-09T20:01:25.761Z,23.00
2023-01-09T20:04:30.001Z,22.27
2023-01-09T20:07:32.127Z,21.13
2023-01-09T20:10:34.200Z,22.40
2023-01-09T20:13:36.442Z,23.73
2023-01-09T20:16:38.543Z,21.95
2023-01-09T20:19:40.643Z,24.65
2023-01-09T20:22:42.590Z,19.83
2023-01-09T20:25:45.451Z,21.58
2023-01-09T20:28:47.562Z,22.45
2023-01-09T20:31:49.665Z,21.20
2023-01-09T20:34:51.665Z,24.30
2023-01-09T20:37:53.735Z,35.88
2023-01-09T20:40:55.731Z,34.65
2023-01-09T20:44:01.794Z,29.58
2023-01-09T20:47:03.868Z,40.10
2023-01-09T20:50:06.138Z,27.05
2023-01-09T20:53:08.240Z,21.40
2023-01-09T20:56:10.350Z,26.00
2023-01-09T20:59:14.345Z,25.33
2023-01-09T21:02:16.399Z,20.93
2023-01-09T21:05:18.523Z,20.63
2023-01-09T21:08:20.516Z,19.40
2023-01-09T21:11:22.943Z,21.77
2023-01-09T21:14:24.936Z,20.38
2023-01-09T21:17:28.279Z,19.25
2023-01-09T21:20:30.249Z,22.02
2023-01-09T21:23:32.894Z,19.80
2023-01-09T21:26:34.917Z,22.35
2023-01-09T21:29:36.953Z,21.15
2023-01-09T21:32:39.092Z,23.43
2023-01-09T21:35:41.039Z,23.42
2023-01-09T21:38:43.138Z,24.05
2023-01-09T21:42:03.485Z,22.27
2023-01-09T21:45:24.505Z,24.00
2023-01-09T21:48:27.759Z,22.58
2023-01-09T21:51:29.726Z,21.42
2023-01-09T21:54:32.119Z,20.07
2023-01-09T21:57:34.143Z,19.52
2023-01-09T22:00:36.221Z,21.83
2023-01-09T22:03:38.235Z,21.70
2023-01-09T22:06:40.239Z,21.02
2023-01-09T22:09:44.503Z,25.85
2023-01-09T22:13:09.245Z,21.77
2023-01-09T22:16:11.319Z,21.20
2023-01-09T22:19:13.958Z,21.90
2023-01-09T22:22:16.059Z,21.75
2023-01-09T22:25:18.105Z,21.10
2023-01-09T22:28:20.680Z,21.00
2023-01-09T22:31:25.882Z,22.88
2023-01-09T22:34:28.124Z,23.33
2023-01-09T22:37:30.107Z,22.00
2023-01-09T22:40:32.575Z,23.85
2023-01-09T22:43:34.544Z,25.70
2023-01-09T22:46:36.570Z,30.15
2023-01-09T22:49:52.213Z,26.33
2023-01-09T22:52:54.577Z,25.85
2023-01-09T22:56:00.344Z,25.40
2023-01-09T22:59:02.418Z,24.05
2023-01-09T23:02:04.646Z,21.70
2023-01-09T23:05:06.902Z,23.83
2023-01-09T23:08:08.868Z,22.63
2023-01-09T23:11:11.863Z,21.52
2023-01-09T23:14:13.891Z,21.60
2023-01-09T23:17:15.867Z,18.83
2023-01-09T23:20:17.958Z,20.35
2023-01-09T23:23:21.105Z,20.70
2023-01-09T23:26:23.171Z,20.47
2023-01-09T23:29:25.473Z,17.10
2023-01-09T23:32:27.499Z,19.23
2023-01-09T23:35:29.457Z,19.20
2023-01-09T23:38:31.447Z,18.40
2023-01-09T23:41:51.921Z,19.65
2023-01-09T23:44:53.913Z,17.35
2023-01-09T23:47:55.878Z,19.05
2023-01-09T23:50:57.970Z,18.90
2023-01-09T23:53:59.993Z,19.58
2023-01-09T23:57:01.995Z,18.83
